Time;durP1;ratioP1;P1;durP2;ratioP2;P2;SDS_P1;SDS_P2;PMS_P1;PMS_P2;Temp;Humidity;BMP_temperature;BMP_pressure;BME280_temperature;BME280_humidity;BME280_pressure;Samples;Min_cycle;Max_cycle;Signal;HPM_P1;HPM_P2
2023/08/03 00:01:02;;;;;;;6.17;3.57;;;16.40;99.90;;;;;;5094769;28;20503;-70
2023/08/03 00:03:31;;;;;;;5.53;3.47;;;16.40;99.90;;;;;;5093554;28;20477;-70
2023/08/03 00:05:59;;;;;;;3.90;3.50;;;16.40;99.90;;;;;;5093275;28;20483;-70
2023/08/03 00:08:27;;;;;;;6.93;3.30;;;16.40;99.90;;;;;;5094533;28;20475;-70
2023/08/03 00:10:55;;;;;;;4.80;3.40;;;16.40;99.90;;;;;;5094436;28;20533;-70
2023/08/03 00:13:23;;;;;;;5.20;3.13;;;16.40;99.90;;;;;;5094426;28;20441;-70
2023/08/03 00:15:51;;;;;;;3.90;3.10;;;16.40;99.90;;;;;;5093060;28;20438;-70
2023/08/03 00:18:21;;;;;;;5.13;3.43;;;16.40;99.90;;;;;;5094558;28;20440;-70
2023/08/03 00:20:50;;;;;;;8.93;3.47;;;16.40;99.90;;;;;;5094578;28;20453;-70
2023/08/03 00:23:18;;;;;;;4.43;3.40;;;16.40;99.90;;;;;;5092957;28;20435;-70
2023/08/03 00:25:46;;;;;;;6.90;3.50;;;16.40;99.90;;;;;;5092986;28;20423;-70
2023/08/03 00:28:14;;;;;;;5.17;3.90;;;16.40;99.90;;;;;;5093843;28;20439;-70
2023/08/03 00:30:42;;;;;;;6.30;3.97;;;16.40;99.90;;;;;;5092841;28;20979;-70
2023/08/03 00:33:10;;;;;;;5.37;3.30;;;16.40;99.90;;;;;;5094170;28;20504;-70
2023/08/03 00:35:40;;;;;;;7.60;3.87;;;16.40;99.90;;;;;;5092658;28;20442;-70
2023/08/03 00:38:08;;;;;;;8.20;3.63;;;16.40;99.90;;;;;;5093984;28;20471;-70
2023/08/03 00:40:36;;;;;;;7.30;3.97;;;16.40;99.90;;;;;;5093876;28;20419;-70
2023/08/03 00:43:04;;;;;;;4.10;3.40;;;16.40;99.90;;;;;;5093898;28;20862;-70
2023/08/03 00:45:32;;;;;;;5.03;3.43;;;16.40;99.90;;;;;;5092701;28;20430;-70
2023/08/03 00:48:01;;;;;;;6.97;3.80;;;16.40;99.90;;;;;;5094258;28;20539;-70
2023/08/03 00:50:30;;;;;;;6.40;3.73;;;16.40;99.90;;;;;;5093851;28;20456;-70
2023/08/03 00:53:00;;;;;;;6.37;4.37;;;16.40;99.90;;;;;;5092429;28;20518;-70
2023/08/03 00:55:28;;;;;;;4.83;3.80;;;16.40;99.90;;;;;;5093998;28;20423;-70
2023/08/03 00:57:56;;;;;;;5.03;3.73;;;16.40;99.90;;;;;;5092416;28;20517;-70
2023/08/03 01:00:25;;;;;;;6.87;3.60;;;16.40;99.90;;;;;;5093862;28;20472;-70
2023/08/03 01:02:53;;;;;;;6.47;4.30;;;16.40;99.90;;;;;;5092257;28;20492;-70
2023/08/03 01:05:21;;;;;;;6.60;3.83;;;16.40;99.90;;;;;;5092264;28;20444;-70
2023/08/03 01:07:49;;;;;;;4.60;3.50;;;16.40;99.90;;;;;;5094066;28;20403;-70
2023/08/03 01:10:18;;;;;;;10.10;4.17;;;16.40;99.90;;;;;;5093683;28;20811;-70
2023/08/03 01:12:47;;;;;;;5.73;3.53;;;16.40;99.90;;;;;;5092058;28;20434;-70
2023/08/03 01:15:16;;;;;;;7.50;4.00;;;16.40;99.90;;;;;;5092222;28;20464;-70
2023/08/03 01:17:45;;;;;;;4.17;3.20;;;16.40;99.90;;;;;;5093404;28;20950;-70
2023/08/03 01:20:14;;;;;;;7.87;3.73;;;16.40;99.90;;;;;;5092182;28;20444;-70
2023/08/03 01:22:44;;;;;;;7.30;3.40;;;16.40;99.90;;;;;;5091994;28;20782;-70
2023/08/03 01:25:12;;;;;;;7.80;3.83;;;16.40;99.90;;;;;;5092076;28;20520;-70
2023/08/03 01:27:45;;;;;;;4.40;3.30;;;16.40;99.90;;;;;;5093310;28;20506;-70
2023/08/03 01:30:13;;;;;;;5.63;3.50;;;16.40;99.90;;;;;;5092321;28;20418;-70
2023/08/03 01:32:41;;;;;;;8.03;4.07;;;16.30;99.90;;;;;;5092205;28;20492;-70
2023/08/03 01:35:10;;;;;;;6.03;3.93;;;16.30;99.90;;;;;;5091901;28;20443;-70
2023/08/03 01:37:38;;;;;;;7.30;4.23;;;16.40;99.90;;;;;;5091934;28;20514;-70
2023/08/03 01:40:10;;;;;;;5.57;3.50;;;16.40;99.90;;;;;;5096468;28;20423;-70
2023/08/03 01:42:39;;;;;;;10.33;3.60;;;16.40;99.90;;;;;;5097585;28;20526;-70
2023/08/03 01:45:08;;;;;;;5.87;3.93;;;16.40;99.90;;;;;;5097924;28;20410;-70
2023/08/03 01:47:36;;;;;;;5.80;3.47;;;16.40;99.90;;;;;;5096012;28;20437;-70
2023/08/03 01:50:05;;;;;;;7.43;4.10;;;16.40;99.90;;;;;;5095904;28;20949;-70
2023/08/03 01:52:33;;;;;;;4.57;3.20;;;16.40;99.90;;;;;;5097129;28;20859;-70
2023/08/03 01:55:01;;;;;;;5.90;3.27;;;16.40;99.90;;;;;;5095798;28;20479;-70
2023/08/03 01:57:31;;;;;;;5.90;3.33;;;16.40;99.90;;;;;;5095884;28;20476;-70
2023/08/03 01:59:59;;;;;;;8.43;4.03;;;16.40;99.90;;;;;;5095799;28;20451;-70
2023/08/03 02:02:27;;;;;;;4.63;2.87;;;16.40;99.90;;;;;;5095667;28;20936;-70
2023/08/03 02:04:55;;;;;;;7.97;3.50;;;16.40;99.90;;;;;;5095652;28;20957;-70
2023/08/03 02:07:42;;;;;;;5.80;3.07;;;16.40;99.90;;;;;;5095643;28;20419;-70
2023/08/03 02:10:11;;;;;;;5.50;3.70;;;16.40;99.90;;;;;;5095603;28;20457;-70
2023/08/03 02:12:41;;;;;;;6.37;3.60;;;16.40;99.90;;;;;;5096810;28;20423;-70
2023/08/03 02:15:10;;;;;;;3.50;2.80;;;16.40;99.90;;;;;;5097339;28;20414;-70
2023/08/03 02:17:38;;;;;;;5.90;3.10;;;16.40;99.90;;;;;;5096714;28;20464;-70
2023/08/03 02:20:07;;;;;;;4.40;3.20;;;16.40;99.90;;;;;;5095330;28;20415;-70
2023/08/03 02:22:36;;;;;;;6.37;4.00;;;16.40;99.90;;;;;;5096462;28;20425;-70
2023/08/03 02:25:04;;;;;;;6.73;3.53;;;16.50;99.90;;;;;;5096904;28;20443;-70
2023/08/03 02:27:33;;;;;;;5.50;3.80;;;16.40;99.90;;;;;;5095234;28;20451;-70
2023/08/03 02:30:02;;;;;;;5.57;3.90;;;16.40;99.90;;;;;;5096762;28;20448;-70
2023/08/03 02:32:35;;;;;;;6.87;3.80;;;16.40;99.90;;;;;;5095097;28;20442;-70
2023/08/03 02:35:03;;;;;;;6.47;4.10;;;16.50;99.90;;;;;;5096426;28;20945;-70
2023/08/03 02:37:31;;;;;;;6.63;4.60;;;16.50;99.90;;;;;;5095553;28;20789;-70
2023/08/03 02:40:08;;;;;;;7.27;3.60;;;16.50;99.90;;;;;;5094939;28;20448;-68
2023/08/03 02:42:37;;;;;;;5.23;3.20;;;16.50;99.90;;;;;;5095258;28;20885;-68
2023/08/03 02:45:10;;;;;;;7.27;3.50;;;16.50;99.90;;;;;;5095150;28;20509;-68
2023/08/03 02:47:38;;;;;;;3.77;3.27;;;16.50;99.90;;;;;;5095144;28;20430;-68
2023/08/03 02:50:07;;;;;;;7.30;3.60;;;16.50;99.90;;;;;;5094615;28;20454;-68
2023/08/03 02:52:36;;;;;;;6.63;3.80;;;16.50;99.90;;;;;;5094721;28;20442;-68
2023/08/03 02:55:05;;;;;;;8.27;4.07;;;16.50;99.90;;;;;;5094729;28;20480;-68
2023/08/03 02:57:35;;;;;;;5.70;3.90;;;16.50;99.90;;;;;;5094578;28;20456;-68
2023/08/03 03:00:10;;;;;;;7.03;3.53;;;16.50;99.90;;;;;;5094717;28;20447;-68
2023/08/03 03:02:40;;;;;;;6.23;3.70;;;16.50;99.90;;;;;;5094460;28;20871;-68
2023/08/03 03:05:12;;;;;;;7.03;4.30;;;16.50;99.90;;;;;;5094600;28;20939;-68
2023/08/03 03:07:44;;;;;;;5.70;3.90;;;16.50;99.90;;;;;;5094506;28;20415;-68
2023/08/03 03:10:13;;;;;;;5.83;4.77;;;16.50;99.90;;;;;;5094372;28;20994;-68
2023/08/03 03:12:42;;;;;;;4.87;3.67;;;16.50;99.90;;;;;;5094685;28;20467;-68
2023/08/03 03:15:13;;;;;;;5.40;3.30;;;16.50;99.90;;;;;;5094450;28;20455;-68
2023/08/03 03:17:42;;;;;;;6.20;4.30;;;16.50;99.90;;;;;;5095968;28;20460;-68
2023/08/03 03:20:12;;;;;;;6.37;4.70;;;16.50;99.90;;;;;;5094184;28;20449;-68
2023/08/03 03:22:41;;;;;;;7.30;5.33;;;16.50;99.90;;;;;;5094110;28;20439;-69
2023/08/03 03:25:10;;;;;;;5.80;4.20;;;16.50;99.90;;;;;;5094102;28;20821;-68
2023/08/03 03:27:38;;;;;;;8.33;7.47;;;16.50;99.90;;;;;;5094029;28;20497;-68
2023/08/03 03:30:09;;;;;;;10.00;4.50;;;16.40;99.90;;;;;;5094008;28;20510;-68
2023/08/03 03:32:39;;;;;;;4.10;3.70;;;16.50;99.90;;;;;;5093903;28;20464;-68
2023/08/03 03:35:08;;;;;;;6.00;3.57;;;16.50;99.90;;;;;;5093952;28;20447;-68
2023/08/03 03:37:36;;;;;;;3.50;3.20;;;16.50;99.90;;;;;;5093801;28;20464;-68
2023/08/03 03:40:06;;;;;;;4.87;3.97;;;16.50;99.90;;;;;;5093787;28;20942;-69
2023/08/03 03:42:40;;;;;;;3.93;3.50;;;16.50;99.90;;;;;;5093762;28;20466;-69
2023/08/03 03:45:09;;;;;;;5.03;3.57;;;16.50;99.90;;;;;;5093682;28;20425;-68
2023/08/03 03:47:40;;;;;;;4.77;3.67;;;16.50;99.90;;;;;;5093670;28;20809;-68
2023/08/03 03:50:10;;;;;;;4.20;3.80;;;16.50;99.90;;;;;;5093667;28;20875;-68
2023/08/03 03:52:38;;;;;;;6.00;3.97;;;16.50;99.90;;;;;;5094718;28;20427;-68
2023/08/03 03:55:08;;;;;;;3.90;3.60;;;16.50;99.90;;;;;;5093563;28;21008;-68
2023/08/03 03:57:38;;;;;;;4.33;3.93;;;16.50;99.90;;;;;;5093497;28;20445;-68
2023/08/03 04:00:10;;;;;;;5.57;3.77;;;16.50;99.90;;;;;;5093491;28;20471;-68
2023/08/03 04:02:42;;;;;;;3.97;3.57;;;16.50;99.90;;;;;;5094243;28;20460;-68
2023/08/03 04:05:17;;;;;;;6.30;5.70;;;16.50;99.90;;;;;;5093352;28;20440;-68
2023/08/03 04:07:45;;;;;;;4.90;4.20;;;16.50;99.90;;;;;;5093311;28;20436;-68
2023/08/03 04:10:13;;;;;;;5.33;3.50;;;16.50;99.90;;;;;;5093257;28;20436;-69
2023/08/03 04:12:41;;;;;;;5.17;4.10;;;16.50;99.90;;;;;;5094572;28;20842;-69
2023/08/03 04:15:10;;;;;;;5.17;3.90;;;16.50;99.90;;;;;;5093142;28;20447;-68
2023/08/03 04:17:38;;;;;;;5.87;4.07;;;16.50;99.90;;;;;;5094554;28;20552;-68
2023/08/03 04:20:12;;;;;;;3.97;3.60;;;16.50;99.90;;;;;;5093112;28;20447;-69
2023/08/03 04:22:40;;;;;;;4.77;4.13;;;16.50;99.90;;;;;;5092932;28;20939;-69
2023/08/03 04:25:10;;;;;;;5.20;4.70;;;16.50;99.90;;;;;;5092959;28;20475;-69
2023/08/03 04:27:40;;;;;;;5.40;4.90;;;16.50;99.90;;;;;;5093188;28;20986;-69
2023/08/03 04:30:13;;;;;;;5.53;5.03;;;16.50;99.90;;;;;;5093899;28;20426;-69
2023/08/03 04:32:42;;;;;;;5.50;5.10;;;16.50;99.90;;;;;;5093124;28;20868;-69
2023/08/03 04:35:14;;;;;;;5.77;5.23;;;16.50;99.90;;;;;;5092774;28;20430;-69
2023/08/03 04:37:47;;;;;;;5.30;4.90;;;16.50;99.90;;;;;;5092668;28;20454;-69
2023/08/03 04:40:15;;;;;;;5.23;4.93;;;16.50;99.90;;;;;;5092613;28;20454;-69
2023/08/03 04:42:44;;;;;;;5.03;4.73;;;16.50;99.90;;;;;;5092665;28;20472;-69
2023/08/03 04:45:12;;;;;;;5.33;4.93;;;16.50;99.90;;;;;;5093882;28;20498;-69
2023/08/03 04:47:44;;;;;;;5.43;5.10;;;16.50;99.90;;;;;;5092704;28;20809;-69
2023/08/03 04:50:14;;;;;;;5.10;4.70;;;16.50;99.90;;;;;;5092531;28;20465;-69
2023/08/03 04:52:42;;;;;;;5.47;4.97;;;16.60;99.90;;;;;;5092452;28;20439;-69
2023/08/03 04:55:10;;;;;;;6.50;6.00;;;16.60;99.90;;;;;;5092514;28;20455;-69
2023/08/03 04:57:38;;;;;;;7.93;6.40;;;16.60;99.90;;;;;;5094133;28;20441;-69
2023/08/03 05:00:09;;;;;;;6.90;5.40;;;16.60;99.90;;;;;;5093265;28;20501;-69
2023/08/03 05:02:37;;;;;;;6.17;5.67;;;16.60;99.90;;;;;;5092245;28;20539;-69
2023/08/03 05:05:06;;;;;;;6.93;6.33;;;16.60;99.90;;;;;;5092947;28;20455;-69
2023/08/03 05:07:36;;;;;;;6.67;6.03;;;16.70;99.90;;;;;;5092589;28;20502;-68
2023/08/03 05:10:05;;;;;;;6.80;6.20;;;16.70;99.90;;;;;;5093802;28;20821;-69
2023/08/03 05:12:33;;;;;;;7.73;6.10;;;16.70;99.90;;;;;;5093328;28;20488;-69
2023/08/03 05:15:01;;;;;;;7.27;6.10;;;16.70;99.90;;;;;;5091716;28;20498;-68
2023/08/03 05:17:29;;;;;;;5.33;4.93;;;16.80;99.90;;;;;;5093591;28;21001;-69
2023/08/03 05:19:58;;;;;;;6.00;5.40;;;16.80;99.90;;;;;;5092117;28;20489;-69
2023/08/03 05:22:26;;;;;;;5.60;5.20;;;16.80;99.90;;;;;;5093732;28;20452;-68
2023/08/03 05:24:55;;;;;;;5.13;4.63;;;16.80;99.90;;;;;;5093328;28;20495;-68
2023/08/03 05:27:23;;;;;;;5.23;4.83;;;16.80;99.90;;;;;;5093915;28;20406;-68
2023/08/03 05:29:51;;;;;;;4.93;4.23;;;16.80;99.90;;;;;;5093383;28;20503;-68
2023/08/03 05:32:20;;;;;;;5.10;4.60;;;16.80;99.90;;;;;;5093226;28;20551;-68
2023/08/03 05:34:48;;;;;;;4.83;4.43;;;16.80;99.90;;;;;;5093255;28;20446;-68
2023/08/03 05:37:16;;;;;;;4.80;4.40;;;16.80;99.90;;;;;;5093163;28;20446;-68
2023/08/03 05:39:44;;;;;;;5.77;5.07;;;16.80;99.90;;;;;;5093100;28;20452;-68
2023/08/03 05:42:14;;;;;;;5.87;5.47;;;16.80;99.90;;;;;;5093182;28;20437;-68
2023/08/03 05:44:42;;;;;;;5.97;5.30;;;16.80;99.90;;;;;;5093283;28;20501;-68
2023/08/03 05:47:14;;;;;;;8.07;6.80;;;16.80;99.90;;;;;;5092745;28;20418;-68
2023/08/03 05:49:42;;;;;;;7.30;6.70;;;16.80;99.90;;;;;;5093157;28;20759;-68
2023/08/03 05:52:11;;;;;;;7.30;6.47;;;16.80;99.90;;;;;;5093530;28;20427;-68
2023/08/03 05:54:39;;;;;;;8.07;7.37;;;16.80;99.90;;;;;;5093412;28;20432;-68
2023/08/03 05:57:13;;;;;;;7.77;7.07;;;16.80;99.90;;;;;;5093238;28;20411;-68
2023/08/03 05:59:41;;;;;;;8.57;7.83;;;16.80;99.90;;;;;;5093356;28;20429;-68
2023/08/03 06:02:27;;;;;;;7.33;6.80;;;16.80;99.90;;;;;;5092952;28;20529;-69
2023/08/03 06:04:55;;;;;;;8.00;7.30;;;16.80;99.90;;;;;;5091760;28;20407;-69
2023/08/03 06:07:23;;;;;;;7.53;6.93;;;16.80;99.90;;;;;;5092998;28;20500;-68
2023/08/03 06:09:51;;;;;;;7.50;6.80;;;16.80;99.90;;;;;;5091741;28;20540;-69
2023/08/03 06:12:21;;;;;;;7.50;6.80;;;16.90;99.90;;;;;;5092874;28;20477;-69
2023/08/03 06:14:49;;;;;;;10.17;7.13;;;16.90;99.90;;;;;;5092827;28;20421;-69
2023/08/03 06:17:22;;;;;;;7.70;7.07;;;16.90;99.90;;;;;;5093222;28;20437;-68
2023/08/03 06:19:50;;;;;;;7.60;6.80;;;16.90;99.90;;;;;;5091621;28;20456;-68
2023/08/03 06:22:21;;;;;;;8.17;7.37;;;16.90;99.90;;;;;;5092732;28;20560;-68
2023/08/03 06:24:50;;;;;;;8.30;7.60;;;16.90;99.90;;;;;;5093900;28;20836;-69
2023/08/03 06:27:20;;;;;;;7.97;7.27;;;16.90;99.90;;;;;;5096773;28;20471;-69
2023/08/03 06:29:48;;;;;;;9.43;7.90;;;16.90;99.90;;;;;;5096480;28;20399;-69
2023/08/03 06:32:23;;;;;;;10.17;8.30;;;16.90;99.90;;;;;;5096377;28;20434;-69
2023/08/03 06:34:52;;;;;;;8.90;8.03;;;16.90;99.90;;;;;;5096953;28;20412;-69
2023/08/03 06:37:21;;;;;;;8.40;7.77;;;17.00;99.90;;;;;;5096648;28;20448;-69
2023/08/03 06:39:50;;;;;;;9.50;8.23;;;17.00;99.90;;;;;;5096081;28;20454;-69
2023/08/03 06:42:20;;;;;;;8.63;7.80;;;17.00;99.90;;;;;;5096225;28;20435;-69
2023/08/03 06:44:48;;;;;;;8.70;7.90;;;17.00;99.90;;;;;;5096191;28;20443;-69
2023/08/03 06:47:16;;;;;;;9.60;8.80;;;17.00;99.90;;;;;;5096167;28;20490;-69
2023/08/03 06:49:44;;;;;;;9.90;9.20;;;17.10;99.90;;;;;;5096109;28;20456;-69
2023/08/03 06:52:12;;;;;;;10.97;7.90;;;17.10;99.90;;;;;;5096069;28;20427;-69
2023/08/03 06:54:40;;;;;;;9.60;8.60;;;17.20;99.90;;;;;;5094806;28;20801;-69
2023/08/03 06:57:08;;;;;;;9.50;8.60;;;17.30;99.90;;;;;;5096245;28;20469;-69
2023/08/03 06:59:38;;;;;;;9.77;8.73;;;17.40;99.90;;;;;;5096640;28;20439;-69
2023/08/03 07:02:07;;;;;;;9.60;8.63;;;17.50;99.90;;;;;;5096013;28;20488;-69
2023/08/03 07:04:35;;;;;;;10.57;8.80;;;17.70;99.90;;;;;;5095858;28;20432;-69
2023/08/03 07:07:03;;;;;;;9.23;8.53;;;17.80;99.90;;;;;;5095799;28;20925;-70
2023/08/03 07:09:31;;;;;;;10.00;9.10;;;17.80;99.90;;;;;;5095721;28;20933;-69
2023/08/03 07:12:00;;;;;;;10.57;9.57;;;17.90;99.90;;;;;;5095902;28;20505;-69
2023/08/03 07:14:28;;;;;;;10.27;9.40;;;17.90;99.90;;;;;;5094454;28;20926;-69
2023/08/03 07:16:57;;;;;;;11.60;10.43;;;17.80;99.90;;;;;;5095988;28;20494;-69
2023/08/03 07:19:25;;;;;;;11.27;10.30;;;17.80;99.90;;;;;;5096101;28;20499;-69
2023/08/03 07:21:53;;;;;;;11.67;10.67;;;17.80;99.90;;;;;;5094297;28;20474;-69
2023/08/03 07:24:21;;;;;;;10.27;9.37;;;17.80;99.90;;;;;;5095598;28;20436;-69
2023/08/03 07:26:50;;;;;;;12.40;11.33;;;17.80;99.90;;;;;;5096384;28;20781;-69
2023/08/03 07:29:18;;;;;;;11.53;10.50;;;17.80;99.90;;;;;;5095575;28;20483;-69
2023/08/03 07:31:48;;;;;;;10.37;9.47;;;17.90;99.90;;;;;;5095320;28;20406;-70
2023/08/03 07:34:18;;;;;;;10.13;9.33;;;18.00;99.90;;;;;;5095959;28;20417;-69
2023/08/03 07:36:46;;;;;;;10.23;9.37;;;18.10;99.90;;;;;;5094412;28;20497;-69
2023/08/03 07:39:14;;;;;;;8.73;7.87;;;18.20;99.90;;;;;;5095002;28;20479;-69
2023/08/03 07:41:42;;;;;;;8.80;8.00;;;18.30;99.90;;;;;;5095194;28;20432;-69
2023/08/03 07:44:11;;;;;;;9.13;8.33;;;18.40;99.90;;;;;;5095395;28;20514;-68
2023/08/03 07:46:39;;;;;;;7.67;6.87;;;18.50;99.90;;;;;;5095066;28;20436;-69
2023/08/03 07:49:07;;;;;;;7.17;6.47;;;18.50;99.90;;;;;;5094148;28;20444;-69
2023/08/03 07:51:37;;;;;;;6.97;6.30;;;18.50;99.90;;;;;;5093733;28;20468;-69
2023/08/03 07:54:05;;;;;;;9.80;6.83;;;18.50;99.90;;;;;;5093678;28;20563;-69
2023/08/03 07:56:33;;;;;;;6.93;6.43;;;18.50;99.90;;;;;;5094960;28;20436;-68
2023/08/03 07:59:03;;;;;;;5.97;5.47;;;18.50;99.90;;;;;;5094776;28;20533;-69
2023/08/03 08:01:32;;;;;;;6.40;5.90;;;18.40;99.90;;;;;;5094879;28;20527;-69
2023/08/03 08:04:01;;;;;;;5.10;4.60;;;18.40;99.90;;;;;;5094683;28;20456;-69
2023/08/03 08:06:30;;;;;;;5.27;4.73;;;18.40;99.90;;;;;;5093740;28;20440;-69
2023/08/03 08:08:59;;;;;;;5.40;4.90;;;18.40;99.90;;;;;;5095253;28;20439;-68
2023/08/03 08:11:29;;;;;;;5.17;4.77;;;18.40;99.90;;;;;;5094561;28;20937;-69
2023/08/03 08:13:59;;;;;;;5.97;5.40;;;18.40;99.90;;;;;;5093226;28;20468;-69
2023/08/03 08:16:27;;;;;;;4.43;4.03;;;18.40;99.90;;;;;;5094646;28;20428;-68
2023/08/03 08:18:55;;;;;;;6.00;5.50;;;18.40;99.90;;;;;;5094880;28;20464;-69
2023/08/03 08:21:24;;;;;;;5.60;4.93;;;18.40;99.90;;;;;;5094663;28;20952;-69
2023/08/03 08:23:52;;;;;;;4.40;4.03;;;18.40;99.90;;;;;;5094512;28;20815;-69
2023/08/03 08:26:21;;;;;;;6.90;4.90;;;18.40;99.90;;;;;;5094722;28;20526;-69
2023/08/03 08:28:51;;;;;;;5.23;4.73;;;18.40;99.90;;;;;;5094896;28;20523;-68
2023/08/03 08:31:32;;;;;;;5.30;4.80;;;18.40;99.90;;;;;;5094237;28;20973;-69
2023/08/03 08:34:20;;;;;;;5.50;4.80;;;18.40;99.90;;;;;;5094528;28;20432;-69
2023/08/03 08:36:51;;;;;;;7.10;4.70;;;18.50;99.90;;;;;;5094112;28;20460;-69
2023/08/03 08:39:19;;;;;;;5.93;5.43;;;18.50;99.90;;;;;;5094304;28;20478;-70
2023/08/03 08:41:49;;;;;;;5.20;4.50;;;18.50;99.90;;;;;;5093917;28;20855;-70
2023/08/03 08:44:17;;;;;;;7.87;5.97;;;18.50;99.90;;;;;;5094282;28;20415;-69
2023/08/03 08:46:45;;;;;;;3.97;3.60;;;18.40;99.90;;;;;;5092947;28;20436;-70
2023/08/03 08:49:14;;;;;;;5.50;4.27;;;18.40;99.90;;;;;;5093830;28;20799;-69
2023/08/03 08:51:48;;;;;;;3.97;3.50;;;18.30;99.90;;;;;;5092973;28;20481;-69
2023/08/03 08:54:19;;;;;;;4.23;3.40;;;18.40;99.90;;;;;;5094589;28;20768;-69
2023/08/03 08:56:50;;;;;;;4.40;4.00;;;18.40;99.90;;;;;;5092658;28;20422;-69
2023/08/03 08:59:21;;;;;;;3.30;3.10;;;18.40;99.90;;;;;;5093821;28;20452;-69
2023/08/03 09:01:53;;;;;;;3.83;3.10;;;18.40;99.90;;;;;;5093955;28;20412;-69
2023/08/03 09:04:30;;;;;;;3.43;3.13;;;18.50;99.90;;;;;;5093082;28;20452;-69
2023/08/03 09:07:00;;;;;;;3.47;3.17;;;18.60;99.90;;;;;;5094359;28;20503;-70
2023/08/03 09:09:32;;;;;;;2.30;2.10;;;18.70;99.90;;;;;;5094509;28;20455;-69
2023/08/03 09:12:01;;;;;;;2.43;2.10;;;18.70;99.90;;;;;;5094242;28;20790;-69
2023/08/03 09:14:31;;;;;;;2.87;1.90;;;18.80;99.90;;;;;;5094400;28;20447;-69
2023/08/03 09:17:16;;;;;;;2.67;1.90;;;18.80;99.90;;;;;;5094392;28;20454;-69
2023/08/03 09:19:45;;;;;;;2.00;1.73;;;18.80;99.90;;;;;;5094648;28;20454;-69
2023/08/03 09:22:16;;;;;;;2.00;1.80;;;18.80;99.90;;;;;;5092936;28;20492;-69
2023/08/03 09:24:59;;;;;;;2.00;1.90;;;18.90;99.90;;;;;;5094245;28;20519;-69
2023/08/03 09:27:29;;;;;;;2.37;1.63;;;18.90;99.90;;;;;;5094301;28;20969;-69
2023/08/03 09:30:00;;;;;;;2.30;1.50;;;19.00;99.90;;;;;;5092995;28;20578;-69
2023/08/03 09:32:34;;;;;;;1.40;1.00;;;19.00;99.90;;;;;;5094209;28;20452;-69
2023/08/03 09:35:03;;;;;;;1.93;1.43;;;19.10;99.90;;;;;;5094253;28;20429;-69
2023/08/03 09:37:36;;;;;;;1.90;1.07;;;19.20;99.90;;;;;;5094316;28;20432;-69
2023/08/03 09:40:08;;;;;;;1.33;1.10;;;19.20;99.90;;;;;;5092979;28;20568;-69
2023/08/03 09:42:38;;;;;;;3.20;1.50;;;19.20;99.90;;;;;;5094105;28;20877;-70
2023/08/03 09:45:09;;;;;;;1.70;1.00;;;19.30;99.90;;;;;;5094326;28;20424;-70
2023/08/03 09:47:41;;;;;;;1.30;0.77;;;19.30;99.90;;;;;;5094365;28;20417;-69
2023/08/03 09:50:10;;;;;;;1.10;0.63;;;19.40;99.90;;;;;;5094458;28;20837;-70
2023/08/03 09:52:45;;;;;;;2.03;0.90;;;19.40;99.90;;;;;;5094254;28;20494;-70
2023/08/03 09:55:25;;;;;;;1.57;1.00;;;19.50;99.90;;;;;;5094183;28;20772;-69
2023/08/03 09:58:00;;;;;;;1.00;0.70;;;19.50;99.90;;;;;;5094271;28;20413;-69
2023/08/03 10:00:29;;;;;;;2.07;1.10;;;19.60;99.90;;;;;;5096932;28;20937;-69
2023/08/03 10:03:01;;;;;;;1.00;0.67;;;19.70;99.90;;;;;;5096495;28;20470;-70
2023/08/03 10:05:37;;;;;;;1.10;0.80;;;19.80;99.90;;;;;;5098554;28;20456;-70
2023/08/03 10:08:09;;;;;;;1.10;0.90;;;19.80;99.90;;;;;;5098162;28;20423;-70
2023/08/03 10:10:42;;;;;;;1.10;0.90;;;19.90;99.90;;;;;;5097883;28;20476;-69
2023/08/03 10:13:12;;;;;;;1.40;1.00;;;20.00;99.90;;;;;;5098189;28;20457;-69
2023/08/03 10:15:42;;;;;;;1.37;0.87;;;20.00;99.90;;;;;;5096440;28;20448;-69
2023/08/03 10:18:10;;;;;;;1.30;1.00;;;20.10;99.90;;;;;;5098256;28;20428;-70
2023/08/03 10:20:40;;;;;;;1.80;0.80;;;20.10;99.90;;;;;;5097489;28;20470;-69
2023/08/03 10:23:10;;;;;;;1.30;0.93;;;20.10;99.90;;;;;;5097123;28;20456;-69
2023/08/03 10:25:56;;;;;;;2.37;1.10;;;20.20;99.90;;;;;;5096936;28;20424;-69
2023/08/03 10:28:27;;;;;;;1.20;0.93;;;20.20;99.90;;;;;;5096664;28;20401;-70
2023/08/03 10:31:19;;;;;;;1.50;1.07;;;20.30;99.90;;;;;;5097078;28;20870;-70
2023/08/03 10:34:08;;;;;;;1.30;1.00;;;20.30;99.90;;;;;;5096596;28;20538;-70
2023/08/03 10:36:51;;;;;;;1.93;1.20;;;20.30;99.90;;;;;;5096569;28;20420;-71
2023/08/03 10:39:48;;;;;;;1.60;1.00;;;20.30;99.90;;;;;;5096228;28;20447;-70
2023/08/03 10:42:25;;;;;;;2.00;1.30;;;20.20;99.90;;;;;;5096516;28;20470;-70
2023/08/03 10:45:16;;;;;;;1.80;1.20;;;20.10;99.90;;;;;;5096598;28;20507;-70
2023/08/03 10:47:45;;;;;;;2.37;1.20;;;20.00;99.90;;;;;;5096201;28;20855;-70
2023/08/03 10:50:14;;;;;;;2.77;1.27;;;19.90;99.90;;;;;;5094842;28;20967;-70
2023/08/03 10:52:42;;;;;;;1.50;1.23;;;19.80;99.90;;;;;;5096029;28;20546;-70
2023/08/03 10:55:26;;;;;;;1.80;1.40;;;19.80;99.90;;;;;;5096047;28;20494;-70
2023/08/03 10:57:55;;;;;;;2.53;1.30;;;19.80;99.90;;;;;;5095995;28;20428;-70
2023/08/03 11:00:23;;;;;;;2.17;1.23;;;19.80;99.90;;;;;;5094620;28;20467;-70
2023/08/03 11:02:53;;;;;;;1.83;1.63;;;19.90;99.90;;;;;;5094592;28;20495;-70
2023/08/03 11:05:21;;;;;;;1.70;1.60;;;19.90;99.90;;;;;;5096012;28;20837;-70
2023/08/03 11:07:49;;;;;;;2.30;1.67;;;20.00;99.90;;;;;;5094678;28;20444;-70
2023/08/03 11:10:17;;;;;;;3.23;1.63;;;20.00;99.90;;;;;;5095756;28;20436;-70
2023/08/03 11:12:46;;;;;;;2.43;1.83;;;20.00;99.90;;;;;;5095638;28;20877;-70
2023/08/03 11:15:16;;;;;;;2.47;1.63;;;20.10;99.90;;;;;;5094394;28;20531;-70
2023/08/03 11:17:49;;;;;;;3.53;1.50;;;20.10;99.90;;;;;;5095834;28;20945;-70
2023/08/03 11:20:19;;;;;;;2.10;1.80;;;20.10;99.90;;;;;;5096167;28;20443;-70
2023/08/03 11:22:48;;;;;;;2.60;1.90;;;20.10;99.90;;;;;;5095491;28;20452;-70
2023/08/03 11:25:19;;;;;;;3.27;1.70;;;20.30;99.90;;;;;;5095481;28;20436;-70
2023/08/03 11:27:48;;;;;;;2.20;1.50;;;20.30;99.90;;;;;;5095730;28;20417;-70
2023/08/03 11:30:20;;;;;;;2.03;1.50;;;20.40;99.90;;;;;;5095465;28;20451;-70
2023/08/03 11:32:48;;;;;;;1.90;1.60;;;20.50;99.90;;;;;;5095578;28;20448;-70
2023/08/03 11:35:18;;;;;;;2.50;1.97;;;20.60;99.90;;;;;;5095516;28;20439;-70
2023/08/03 11:37:46;;;;;;;2.23;1.33;;;20.60;99.90;;;;;;5095221;28;20443;-70
2023/08/03 11:40:16;;;;;;;2.10;1.63;;;20.80;99.90;;;;;;5093777;28;20489;-70
2023/08/03 11:42:45;;;;;;;1.90;1.70;;;20.90;99.90;;;;;;5095373;28;20861;-70
2023/08/03 11:45:14;;;;;;;2.90;1.40;;;21.00;99.90;;;;;;5095339;28;20435;-70
2023/08/03 11:47:43;;;;;;;1.83;1.20;;;21.10;99.90;;;;;;5095027;28;20511;-70
2023/08/03 11:50:12;;;;;;;1.50;1.37;;;21.20;99.90;;;;;;5095167;28;20485;-70
2023/08/03 11:52:42;;;;;;;4.10;1.60;;;21.30;99.90;;;;;;5094890;28;20458;-70
2023/08/03 11:55:24;;;;;;;3.60;1.27;;;21.40;99.90;;;;;;5095241;28;20440;-70
2023/08/03 11:58:10;;;;;;;2.13;1.30;;;21.50;99.90;;;;;;5094888;28;20820;-70
2023/08/03 12:00:39;;;;;;;1.93;0.90;;;21.50;99.90;;;;;;5095266;28;20416;-70
2023/08/03 12:03:07;;;;;;;2.13;1.10;;;21.60;99.90;;;;;;5094702;28;20965;-70
2023/08/03 12:05:48;;;;;;;3.07;1.10;;;21.70;99.90;;;;;;5094700;28;20864;-70
2023/08/03 12:08:25;;;;;;;1.60;1.10;;;21.80;99.90;;;;;;5094706;28;20423;-70
2023/08/03 12:11:01;;;;;;;2.50;1.10;;;21.80;99.90;;;;;;5095144;28;20431;-71
2023/08/03 12:13:29;;;;;;;2.60;1.03;;;21.90;99.90;;;;;;5094686;28;20816;-70
2023/08/03 12:15:57;;;;;;;2.30;1.43;;;22.00;99.90;;;;;;5094527;28;20486;-70
2023/08/03 12:18:26;;;;;;;3.70;1.10;;;22.10;99.90;;;;;;5094513;28;20804;-70
2023/08/03 12:20:54;;;;;;;2.03;1.00;;;22.20;99.90;;;;;;5094349;28;20490;-70
2023/08/03 12:23:26;;;;;;;2.27;1.10;;;22.20;99.90;;;;;;5094100;28;20570;-70
2023/08/03 12:25:54;;;;;;;1.50;1.10;;;22.30;99.90;;;;;;5094326;28;20438;-70
2023/08/03 12:28:23;;;;;;;3.50;1.40;;;22.40;99.90;;;;;;5094627;28;20847;-70
2023/08/03 12:30:54;;;;;;;3.60;1.20;;;22.40;99.90;;;;;;5094842;28;20428;-70
2023/08/03 12:33:23;;;;;;;2.30;1.20;;;22.40;99.90;;;;;;5094104;28;20551;-70
2023/08/03 12:35:51;;;;;;;1.87;1.20;;;22.30;99.90;;;;;;5094148;28;20432;-70
2023/08/03 12:38:19;;;;;;;4.70;1.37;;;22.30;99.90;;;;;;5094243;28;20436;-70
2023/08/03 12:40:48;;;;;;;2.07;1.20;;;22.30;99.90;;;;;;5093995;28;20417;-70
2023/08/03 12:43:17;;;;;;;2.93;1.17;;;22.20;99.90;;;;;;5093946;28;20539;-70
2023/08/03 12:45:45;;;;;;;1.60;1.23;;;22.20;99.90;;;;;;5093996;28;20432;-70
2023/08/03 12:48:14;;;;;;;2.73;1.50;;;22.30;99.90;;;;;;5093869;28;20440;-70
2023/08/03 12:50:45;;;;;;;2.83;1.47;;;22.30;99.90;;;;;;5092666;28;20441;-70
2023/08/03 12:53:14;;;;;;;1.90;1.43;;;22.30;99.90;;;;;;5093753;28;20871;-70
2023/08/03 12:55:42;;;;;;;2.60;1.13;;;22.40;99.90;;;;;;5093893;28;20439;-70
2023/08/03 12:58:12;;;;;;;1.60;1.07;;;22.50;99.90;;;;;;5094106;28;20436;-70
2023/08/03 13:00:41;;;;;;;2.53;1.20;;;22.50;99.90;;;;;;5094034;28;20436;-70